Huvudsida
METAR-TAF:

METAR-TAF

Flygplatser :

Tan Son Nhat internationella flygplats

Ho Chi Minh-staden, Vietnam

latitud: 10-49N, longitud: 106-40E, höjd: 19 m

Aktuellt väderrapport

Denna rapport gjordes för 27 minuter sedan, klockan 12:00 UTC
Vind 9 kt från syd/sydost
Temperatur 31°C
Fuktighet 63%
Tryck 1006 hPa
Sikt 10 km eller mer
Inga moln under 1 500 m eller inga cumulonimbus

METAR: VVTS 221200Z 16009KT CAVOK 31/23 Q1006 NOSIG

Tid: 19:27 (12:27 UTC)

Väderprognos

Denna rapport gjordes för 7 timmar och 27 minuter sedan, klockan 05:00 UTC
Prognos gäller från 22 kl. 06 UTC till 23 kl. 12 UTC
Vind 6 kt från syd
Sikt 10 km eller mer
Spridda moln på en höjd av 2300 ft

TAF: VVTS 220500Z 2206/2312 17006KT 9999 SCT023

Aktuella väderrapporter och prognoser från 4000 flygplatser (METAR- och TAF-rapporter).

De tillgängliga stationerna syns som gula och röda prickar på kartan.

För musen över prickarna för att se namnen på stationerna.

Klicka sedan för att få väderrapporter och prognoser.

För att ändra kartan: Klicka på de gröna knapparna med ett svart kors på för att zooma in; den gröna knappen med ett streck på för att zooma ut; eller på de gröna pilarna för angränsande kartor.


METAR-TAF: